Time;durP1;ratioP1;P1;durP2;ratioP2;P2;SDS_P1;SDS_P2;PMS_P1;PMS_P2;Temp;Humidity;BMP_temperature;BMP_pressure;BME280_temperature;BME280_humidity;BME280_pressure;Samples;Min_cycle;Max_cycle;Signal;HPM_P1;HPM_P2
2022/05/18 00:01:41;;;;;;;3.60;1.80;;;;;;;9.48;43.07;100066.41;1698078;84;21488;-38
2022/05/18 00:04:07;;;;;;;4.00;1.90;;;;;;;9.47;41.87;100063.83;1697726;84;21010;-38
2022/05/18 00:06:33;;;;;;;3.75;2.35;;;;;;;9.45;42.13;100063.88;1697741;83;21010;-38
2022/05/18 00:08:59;;;;;;;12.10;2.30;;;;;;;9.41;41.93;100067.09;1697750;84;20971;-38
2022/05/18 00:11:25;;;;;;;8.03;2.37;;;;;;;9.32;43.71;100065.27;1697695;83;21106;-38
2022/05/18 00:13:53;;;;;;;4.37;1.90;;;;;;;9.35;42.22;100066.02;1697735;84;21006;-38
2022/05/18 00:16:22;;;;;;;5.87;2.00;;;;;;;9.26;42.68;100067.67;1697712;84;21034;-38
2022/05/18 00:18:48;;;;;;;3.72;1.85;;;;;;;9.18;42.55;100069.25;1697709;84;21005;-38
2022/05/18 00:21:14;;;;;;;5.17;2.08;;;;;;;9.18;42.55;100078.91;1697678;83;21038;-38
2022/05/18 00:23:40;;;;;;;2.85;1.80;;;;;;;9.08;42.54;100079.70;1697652;84;20971;-37
2022/05/18 00:26:07;;;;;;;5.35;1.90;;;;;;;9.05;42.53;100085.06;1697663;82;21134;-38
2022/05/18 00:28:33;;;;;;;5.42;1.52;;;;;;;9.08;42.42;100082.77;1697692;84;21005;-38
2022/05/18 00:30:59;;;;;;;4.53;1.75;;;;;;;9.08;42.19;100087.58;1697779;84;21496;-38
2022/05/18 00:33:26;;;;;;;2.33;1.60;;;;;;;8.99;42.67;100079.58;1697761;83;21479;-38
2022/05/18 00:35:51;;;;;;;2.85;1.82;;;;;;;9.00;42.68;100087.86;1697697;84;21035;-37
2022/05/18 00:38:17;;;;;;;2.30;1.85;;;;;;;8.98;42.85;100088.34;1697665;83;21034;-38
2022/05/18 00:40:49;;;;;;;3.42;1.62;;;;;;;8.97;42.67;100088.42;1697737;83;21031;-38
2022/05/18 00:43:21;;;;;;;5.78;1.80;;;;;;;8.91;42.40;100088.16;1697872;82;21030;-37
2022/05/18 00:45:46;;;;;;;3.87;1.75;;;;;;;8.86;42.73;100095.80;1689287;84;21021;-38
2022/05/18 00:48:12;;;;;;;5.97;1.85;;;;;;;8.81;43.37;100104.69;1697734;83;21551;-38
2022/05/18 00:50:41;;;;;;;5.20;1.90;;;;;;;8.82;42.97;100104.23;1698125;83;21500;-37
2022/05/18 00:53:18;;;;;;;4.83;1.60;;;;;;;8.81;42.88;100111.25;1698012;83;21061;-38
2022/05/18 00:55:48;;;;;;;;;;;;;;;8.80;42.80;100116.11;1700437;84;21002;-38
2022/05/18 00:58:22;;;;;;;3.47;1.30;;;;;;;8.76;43.92;100122.34;1697796;83;20142;-38
2022/05/18 01:00:50;;;;;;;2.00;1.22;;;;;;;8.75;43.12;100119.34;1697834;84;20990;-38
2022/05/18 01:03:23;;;;;;;2.80;1.80;;;;;;;8.74;42.93;100125.48;1697751;84;21547;-38
2022/05/18 01:05:57;;;;;;;4.28;1.20;;;;;;;8.66;43.28;100126.22;1697925;84;21010;-38
2022/05/18 01:08:42;;;;;;;4.25;1.62;;;;;;;8.62;43.40;100129.83;1696772;83;21006;-38
2022/05/18 01:11:08;;;;;;;5.47;1.60;;;;;;;8.57;43.14;100129.16;1691459;83;21635;-38
2022/05/18 01:13:34;;;;;;;2.05;1.55;;;;;;;8.48;43.56;100132.93;1697786;84;21002;-38
2022/05/18 01:16:00;;;;;;;11.00;1.90;;;;;;;8.42;44.72;100145.79;1697842;83;21058;-38
2022/05/18 01:18:26;;;;;;;2.65;1.50;;;;;;;8.43;43.80;100144.02;1698053;84;21003;-38
2022/05/18 01:20:53;;;;;;;3.85;1.75;;;;;;;8.39;44.20;100141.91;1697800;84;21002;-38
2022/05/18 01:23:49;;;;;;;5.80;1.70;;;;;;;8.30;44.93;100148.77;1698049;83;20986;-38
2022/05/18 01:26:40;;;;;;;5.20;1.80;;;;;;;8.31;44.76;100147.84;1697850;84;21046;-38
2022/05/18 01:29:07;;;;;;;7.05;1.85;;;;;;;8.27;44.85;100148.86;1693587;84;21002;-38
2022/05/18 01:31:56;;;;;;;5.17;1.50;;;;;;;8.19;44.84;100155.66;1697927;84;20967;-38
2022/05/18 01:34:26;;;;;;;3.90;2.00;;;;;;;8.14;44.87;100150.16;1697656;83;20995;-38
2022/05/18 01:36:53;;;;;;;7.25;1.98;;;;;;;8.12;44.92;100144.12;1697925;83;20994;-38
2022/05/18 01:39:39;;;;;;;1.80;1.47;;;;;;;8.05;45.75;100151.30;1698139;83;20979;-38
2022/05/18 01:42:13;;;;;;;4.95;1.85;;;;;;;8.11;44.81;100147.62;1696119;84;21043;-37
